createdAt,value
2018-08-07T15:05:21.447Z,5.23
2018-08-07T15:07:51.987Z,5.30
2018-08-07T15:10:24.703Z,4.70
2018-08-07T15:12:55.187Z,5.40
2018-08-07T15:15:29.575Z,5.43
2018-08-07T15:18:01.367Z,5.00
2018-08-07T15:20:32.224Z,4.73
2018-08-07T15:23:01.692Z,5.67
2018-08-07T15:25:31.365Z,4.90
2018-08-07T15:28:02.195Z,4.50
2018-08-07T15:30:32.123Z,4.90
2018-08-07T15:33:01.695Z,4.57
2018-08-07T15:35:31.504Z,4.27
2018-08-07T15:38:01.588Z,4.87
2018-08-07T15:40:31.380Z,4.60
2018-08-07T15:43:01.180Z,4.73
2018-08-07T15:45:35.546Z,4.33
2018-08-07T15:48:07.579Z,4.60
2018-08-07T15:50:38.608Z,4.80
2018-08-07T15:53:08.507Z,4.00
2018-08-07T15:55:38.267Z,4.77
2018-08-07T15:58:11.299Z,4.77
2018-08-07T16:00:41.211Z,4.33
2018-08-07T16:03:12.007Z,4.30
2018-08-07T16:05:41.802Z,4.20
2018-08-07T16:08:12.563Z,5.37
2018-08-07T16:10:42.311Z,4.23
2018-08-07T16:13:12.088Z,4.47
2018-08-07T16:15:41.883Z,4.37
2018-08-07T16:18:16.099Z,4.23
2018-08-07T16:20:50.375Z,4.67
2018-08-07T16:23:20.924Z,4.63
2018-08-07T16:25:50.603Z,4.00
2018-08-07T16:28:21.139Z,4.70
2018-08-07T16:30:51.583Z,4.17
2018-08-07T16:33:21.343Z,4.83
2018-08-07T16:35:52.031Z,4.17
2018-08-07T16:38:22.830Z,4.20
2018-08-07T16:40:52.346Z,3.90
2018-08-07T16:43:21.838Z,3.70
2018-08-07T16:45:53.250Z,3.87
2018-08-07T16:48:22.942Z,3.83
2018-08-07T16:50:52.490Z,3.90
2018-08-07T16:53:22.325Z,3.60
2018-08-07T16:55:51.830Z,3.73
2018-08-07T16:58:21.618Z,3.73
2018-08-07T17:00:52.399Z,4.20
2018-08-07T17:03:22.192Z,3.70
2018-08-07T17:05:53.015Z,3.47
2018-08-07T17:08:22.545Z,3.47
2018-08-07T17:10:51.990Z,3.20
2018-08-07T17:13:25.978Z,3.90
2018-08-07T17:15:55.750Z,3.10
2018-08-07T17:18:39.639Z,3.33
2018-08-07T17:21:10.111Z,3.67
2018-08-07T17:23:40.590Z,4.10
2018-08-07T17:26:11.311Z,3.40
2018-08-07T17:28:41.203Z,3.77
2018-08-07T17:31:11.115Z,3.90
2018-08-07T17:33:40.799Z,4.77
2018-08-07T17:36:11.598Z,4.10
2018-08-07T17:38:41.431Z,4.43
2018-08-07T17:41:16.103Z,4.33
2018-08-07T17:43:47.899Z,4.70
2018-08-07T17:46:25.922Z,4.30
2018-08-07T17:48:56.504Z,4.60
2018-08-07T17:51:25.997Z,4.50
2018-08-07T17:53:57.697Z,4.60
2018-08-07T17:56:28.422Z,4.53
2018-08-07T17:58:58.163Z,4.20
2018-08-07T18:01:32.298Z,4.57
2018-08-07T18:04:05.423Z,4.87
2018-08-07T18:06:35.325Z,4.83
2018-08-07T18:09:09.207Z,4.43
2018-08-07T18:11:40.048Z,5.10
2018-08-07T18:14:11.691Z,5.30
2018-08-07T18:16:41.407Z,4.60
2018-08-07T18:19:12.048Z,5.07
2018-08-07T18:21:46.631Z,4.90
2018-08-07T18:24:19.930Z,4.60
2018-08-07T18:26:49.474Z,5.50
2018-08-07T18:29:19.175Z,4.83
2018-08-07T18:31:49.159Z,5.17
2018-08-07T18:34:18.731Z,4.90
2018-08-07T18:36:51.910Z,4.87
2018-08-07T18:39:21.418Z,4.17
2018-08-07T18:41:52.155Z,4.77
2018-08-07T18:44:23.875Z,5.00
2018-08-07T18:46:53.534Z,5.07
2018-08-07T18:49:24.494Z,5.23
2018-08-07T18:51:55.070Z,5.10
2018-08-07T18:54:24.582Z,5.53
2018-08-07T18:56:54.098Z,5.80
2018-08-07T18:59:34.926Z,5.33
2018-08-07T19:02:08.194Z,4.80
2018-08-07T19:04:37.943Z,5.40
2018-08-07T19:07:08.578Z,5.27
2018-08-07T19:09:39.432Z,5.10
2018-08-07T19:12:10.262Z,5.63
2018-08-07T19:14:44.774Z,5.90
2018-08-07T19:17:14.742Z,5.70
2018-08-07T19:19:46.446Z,5.40
2018-08-07T19:22:17.602Z,6.17
2018-08-07T19:24:48.586Z,5.20
2018-08-07T19:27:18.482Z,5.70
2018-08-07T19:29:49.390Z,5.43
2018-08-07T19:32:20.359Z,4.87
2018-08-07T19:34:50.274Z,5.43
2018-08-07T19:37:25.794Z,6.23
2018-08-07T19:39:56.634Z,5.87
2018-08-07T19:42:28.514Z,6.30
2018-08-07T19:45:02.802Z,5.60
2018-08-07T19:47:37.855Z,6.63
2018-08-07T19:50:34.397Z,5.50
2018-08-07T19:53:06.918Z,6.30
2018-08-07T19:55:43.906Z,5.77
2018-08-07T19:58:19.086Z,6.50
2018-08-07T20:00:50.002Z,5.43
2018-08-07T20:03:20.654Z,6.13
2018-08-07T20:05:51.146Z,6.10
2018-08-07T20:08:20.642Z,6.20
2018-08-07T20:10:50.227Z,5.93
2018-08-07T20:13:19.927Z,5.87
2018-08-07T20:15:49.787Z,5.50
2018-08-07T20:18:20.619Z,6.00
2018-08-07T20:20:50.242Z,5.60
2018-08-07T20:23:20.047Z,5.90
2018-08-07T20:25:50.923Z,6.70
2018-08-07T20:28:20.578Z,5.93
2018-08-07T20:30:50.264Z,6.23
2018-08-07T20:33:19.750Z,5.33
2018-08-07T20:35:51.563Z,5.80
2018-08-07T20:38:21.474Z,6.10
2018-08-07T20:40:51.095Z,5.93
2018-08-07T20:43:20.932Z,5.47
2018-08-07T20:45:51.866Z,5.63
2018-08-07T20:48:23.714Z,5.60
2018-08-07T20:51:04.487Z,6.03
2018-08-07T20:53:35.315Z,5.63
2018-08-07T20:56:05.270Z,5.50
2018-08-07T20:58:36.109Z,5.70
2018-08-07T21:01:10.754Z,5.87
2018-08-07T21:03:40.595Z,6.10
2018-08-07T21:06:10.266Z,6.43
2018-08-07T21:08:40.023Z,6.83
2018-08-07T21:11:14.834Z,6.17
2018-08-07T21:13:45.594Z,5.93
2018-08-07T21:16:16.412Z,5.87
2018-08-07T21:18:47.134Z,5.60
2018-08-07T21:21:17.951Z,5.80
2018-08-07T21:23:47.570Z,6.00
2018-08-07T21:26:17.670Z,5.70
2018-08-07T21:28:52.145Z,6.07
2018-08-07T21:31:23.052Z,6.27
2018-08-07T21:33:54.199Z,6.70
2018-08-07T21:36:30.941Z,6.70
2018-08-07T21:39:08.838Z,6.47
2018-08-07T21:41:38.901Z,5.57
2018-08-07T21:44:08.629Z,6.07
2018-08-07T21:46:41.453Z,5.93
2018-08-07T21:49:10.952Z,6.57
2018-08-07T21:51:40.441Z,6.37
2018-08-07T21:54:11.234Z,6.40
2018-08-07T21:56:41.150Z,7.00
2018-08-07T21:59:11.810Z,7.07
2018-08-07T22:01:46.802Z,7.10
2018-08-07T22:04:17.662Z,8.00
2018-08-07T22:06:47.362Z,7.17
2018-08-07T22:09:28.770Z,7.40
2018-08-07T22:12:00.930Z,7.13
2018-08-07T22:14:31.255Z,7.07
2018-08-07T22:17:02.318Z,6.40
2018-08-07T22:19:32.234Z,6.80
2018-08-07T22:22:02.150Z,7.27
2018-08-07T22:24:32.146Z,7.47
2018-08-07T22:27:01.766Z,7.17
2018-08-07T22:29:31.562Z,7.40
2018-08-07T22:32:02.483Z,7.33
2018-08-07T22:34:37.330Z,6.80
2018-08-07T22:37:08.550Z,6.93
2018-08-07T22:39:39.615Z,7.17
2018-08-07T22:42:14.389Z,7.13
2018-08-07T22:44:44.406Z,7.60
2018-08-07T22:47:18.407Z,8.03
2018-08-07T22:49:48.531Z,7.80
2018-08-07T22:52:19.582Z,6.90
2018-08-07T22:54:50.814Z,7.10
2018-08-07T22:57:20.782Z,7.60
2018-08-07T22:59:51.732Z,8.60
2018-08-07T23:02:21.461Z,8.00
2018-08-07T23:04:55.477Z,7.60
2018-08-07T23:07:28.226Z,7.70
2018-08-07T23:09:58.154Z,6.20
2018-08-07T23:12:27.882Z,7.50
2018-08-07T23:15:00.934Z,7.33
2018-08-07T23:17:36.002Z,6.93
2018-08-07T23:20:07.913Z,7.33
2018-08-07T23:22:40.018Z,6.63
2018-08-07T23:25:11.742Z,6.70
2018-08-07T23:27:42.786Z,7.30
2018-08-07T23:30:15.889Z,7.80
2018-08-07T23:32:45.690Z,7.53
2018-08-07T23:35:16.830Z,7.10
2018-08-07T23:37:47.470Z,7.77
2018-08-07T23:40:19.074Z,7.23
2018-08-07T23:42:49.042Z,6.53
2018-08-07T23:45:19.207Z,7.50
2018-08-07T23:47:49.274Z,7.10
2018-08-07T23:50:20.098Z,6.43
2018-08-07T23:52:50.901Z,7.13
2018-08-07T23:55:20.890Z,7.23
2018-08-07T23:57:54.030Z,7.63
